sensor_id;sensor_type;location;lat;lon;timestamp;temperature;humidity
66337;SHT30;53139;45.576;5.304;2023-07-29T00:01:58;23.76;72.16
66337;SHT30;53139;45.576;5.304;2023-07-29T00:04:59;23.58;73.68
66337;SHT30;53139;45.576;5.304;2023-07-29T00:07:59;23.31;74.13
66337;SHT30;53139;45.576;5.304;2023-07-29T00:11:00;23.32;73.02
66337;SHT30;53139;45.576;5.304;2023-07-29T00:14:01;23.38;74.70
66337;SHT30;53139;45.576;5.304;2023-07-29T00:17:01;23.41;72.84
66337;SHT30;53139;45.576;5.304;2023-07-29T00:20:02;23.41;73.07
66337;SHT30;53139;45.576;5.304;2023-07-29T00:23:03;23.65;72.59
66337;SHT30;53139;45.576;5.304;2023-07-29T00:26:03;23.45;73.70
66337;SHT30;53139;45.576;5.304;2023-07-29T00:29:04;23.39;73.85
66337;SHT30;53139;45.576;5.304;2023-07-29T00:32:04;23.22;73.32
66337;SHT30;53139;45.576;5.304;2023-07-29T00:35:05;23.24;73.76
66337;SHT30;53139;45.576;5.304;2023-07-29T00:38:06;23.35;73.11
66337;SHT30;53139;45.576;5.304;2023-07-29T00:41:06;23.15;73.55
66337;SHT30;53139;45.576;5.304;2023-07-29T00:44:07;22.87;74.27
66337;SHT30;53139;45.576;5.304;2023-07-29T00:47:08;22.96;73.60
66337;SHT30;53139;45.576;5.304;2023-07-29T00:50:13;22.65;75.36
66337;SHT30;53139;45.576;5.304;2023-07-29T00:53:14;22.57;74.55
66337;SHT30;53139;45.576;5.304;2023-07-29T00:56:15;22.59;73.86
66337;SHT30;53139;45.576;5.304;2023-07-29T00:59:15;22.08;76.53
66337;SHT30;53139;45.576;5.304;2023-07-29T01:02:16;21.89;75.79
66337;SHT30;53139;45.576;5.304;2023-07-29T01:05:17;21.74;75.84
66337;SHT30;53139;45.576;5.304;2023-07-29T01:12:01;21.52;76.75
66337;SHT30;53139;45.576;5.304;2023-07-29T01:15:16;21.28;78.99
66337;SHT30;53139;45.576;5.304;2023-07-29T01:18:23;21.28;80.62
66337;SHT30;53139;45.576;5.304;2023-07-29T01:21:26;21.35;78.38
66337;SHT30;53139;45.576;5.304;2023-07-29T01:24:27;21.08;77.76
66337;SHT30;53139;45.576;5.304;2023-07-29T01:27:28;21.32;78.52
66337;SHT30;53139;45.576;5.304;2023-07-29T01:30:38;21.59;76.23
66337;SHT30;53139;45.576;5.304;2023-07-29T01:33:43;21.56;77.74
66337;SHT30;53139;45.576;5.304;2023-07-29T01:36:46;21.42;78.78
66337;SHT30;53139;45.576;5.304;2023-07-29T01:39:50;21.01;77.35
66337;SHT30;53139;45.576;5.304;2023-07-29T01:42:51;21.14;78.61
66337;SHT30;53139;45.576;5.304;2023-07-29T01:45:51;21.05;76.85
66337;SHT30;53139;45.576;5.304;2023-07-29T01:48:52;20.84;78.76
66337;SHT30;53139;45.576;5.304;2023-07-29T01:51:52;20.66;78.30
66337;SHT30;53139;45.576;5.304;2023-07-29T01:54:53;20.70;80.89
66337;SHT30;53139;45.576;5.304;2023-07-29T01:57:53;20.47;78.06
66337;SHT30;53139;45.576;5.304;2023-07-29T02:00:54;20.67;79.92
66337;SHT30;53139;45.576;5.304;2023-07-29T02:03:54;20.62;79.83
66337;SHT30;53139;45.576;5.304;2023-07-29T02:06:57;20.57;80.69
66337;SHT30;53139;45.576;5.304;2023-07-29T02:09:58;20.79;77.55
66337;SHT30;53139;45.576;5.304;2023-07-29T02:12:58;20.70;79.23
66337;SHT30;53139;45.576;5.304;2023-07-29T02:15:59;20.50;78.36
66337;SHT30;53139;45.576;5.304;2023-07-29T02:18:59;20.50;80.13
66337;SHT30;53139;45.576;5.304;2023-07-29T02:22:00;20.25;81.09
66337;SHT30;53139;45.576;5.304;2023-07-29T02:25:00;20.50;78.31
66337;SHT30;53139;45.576;5.304;2023-07-29T02:28:01;20.69;77.14
66337;SHT30;53139;45.576;5.304;2023-07-29T02:31:15;20.45;78.04
66337;SHT30;53139;45.576;5.304;2023-07-29T02:34:16;20.66;77.60
66337;SHT30;53139;45.576;5.304;2023-07-29T02:37:17;20.40;79.23
66337;SHT30;53139;45.576;5.304;2023-07-29T02:40:17;20.02;79.15
66337;SHT30;53139;45.576;5.304;2023-07-29T02:43:18;19.90;79.04
66337;SHT30;53139;45.576;5.304;2023-07-29T02:46:18;19.63;78.97
66337;SHT30;53139;45.576;5.304;2023-07-29T02:49:18;19.70;80.22
66337;SHT30;53139;45.576;5.304;2023-07-29T02:52:19;19.59;78.92
66337;SHT30;53139;45.576;5.304;2023-07-29T02:55:19;19.25;82.95
66337;SHT30;53139;45.576;5.304;2023-07-29T02:58:19;19.42;80.67
66337;SHT30;53139;45.576;5.304;2023-07-29T03:01:20;19.20;79.12
66337;SHT30;53139;45.576;5.304;2023-07-29T03:04:20;18.90;80.63
66337;SHT30;53139;45.576;5.304;2023-07-29T03:07:21;18.85;82.86
66337;SHT30;53139;45.576;5.304;2023-07-29T03:10:21;18.94;81.45
66337;SHT30;53139;45.576;5.304;2023-07-29T03:13:22;18.70;79.26
66337;SHT30;53139;45.576;5.304;2023-07-29T03:16:23;18.54;79.93
66337;SHT30;53139;45.576;5.304;2023-07-29T03:19:23;18.71;82.27
66337;SHT30;53139;45.576;5.304;2023-07-29T03:22:24;18.61;80.45
66337;SHT30;53139;45.576;5.304;2023-07-29T03:25:24;19.00;79.81
66337;SHT30;53139;45.576;5.304;2023-07-29T03:28:29;19.43;77.06
66337;SHT30;53139;45.576;5.304;2023-07-29T03:31:30;18.98;78.20
66337;SHT30;53139;45.576;5.304;2023-07-29T03:34:30;18.71;77.90
66337;SHT30;53139;45.576;5.304;2023-07-29T03:37:34;18.57;78.77
66337;SHT30;53139;45.576;5.304;2023-07-29T03:40:34;18.81;78.15
66337;SHT30;53139;45.576;5.304;2023-07-29T03:43:34;18.68;80.64
66337;SHT30;53139;45.576;5.304;2023-07-29T03:46:35;18.74;78.67
66337;SHT30;53139;45.576;5.304;2023-07-29T03:49:35;19.18;77.43
66337;SHT30;53139;45.576;5.304;2023-07-29T03:52:35;19.05;77.86
66337;SHT30;53139;45.576;5.304;2023-07-29T03:55:36;19.40;77.46
66337;SHT30;53139;45.576;5.304;2023-07-29T03:58:36;19.59;75.97
66337;SHT30;53139;45.576;5.304;2023-07-29T04:01:37;19.35;77.11
66337;SHT30;53139;45.576;5.304;2023-07-29T04:04:37;19.71;76.05
66337;SHT30;53139;45.576;5.304;2023-07-29T04:07:37;19.62;77.18
66337;SHT30;53139;45.576;5.304;2023-07-29T04:10:38;19.53;76.34
66337;SHT30;53139;45.576;5.304;2023-07-29T04:13:38;19.55;76.90
66337;SHT30;53139;45.576;5.304;2023-07-29T04:16:38;19.77;76.85
66337;SHT30;53139;45.576;5.304;2023-07-29T04:19:39;19.84;75.22
66337;SHT30;53139;45.576;5.304;2023-07-29T04:22:39;20.39;73.33
66337;SHT30;53139;45.576;5.304;2023-07-29T04:25:40;20.56;73.01
66337;SHT30;53139;45.576;5.304;2023-07-29T04:28:41;20.77;72.38
66337;SHT30;53139;45.576;5.304;2023-07-29T04:31:42;20.95;71.95
66337;SHT30;53139;45.576;5.304;2023-07-29T04:34:42;20.94;72.50
66337;SHT30;53139;45.576;5.304;2023-07-29T04:37:43;20.81;72.44
66337;SHT30;53139;45.576;5.304;2023-07-29T04:40:44;20.73;73.17
66337;SHT30;53139;45.576;5.304;2023-07-29T04:43:44;20.77;72.62
66337;SHT30;53139;45.576;5.304;2023-07-29T04:46:45;20.80;72.48
66337;SHT30;53139;45.576;5.304;2023-07-29T04:49:45;20.76;73.03
66337;SHT30;53139;45.576;5.304;2023-07-29T04:52:46;20.72;73.33
66337;SHT30;53139;45.576;5.304;2023-07-29T04:55:46;20.80;73.75
66337;SHT30;53139;45.576;5.304;2023-07-29T04:58:46;20.95;72.30
66337;SHT30;53139;45.576;5.304;2023-07-29T05:01:47;20.93;72.58
66337;SHT30;53139;45.576;5.304;2023-07-29T05:04:47;20.95;73.77
66337;SHT30;53139;45.576;5.304;2023-07-29T05:07:47;21.19;71.97
66337;SHT30;53139;45.576;5.304;2023-07-29T05:10:52;21.32;71.08
66337;SHT30;53139;45.576;5.304;2023-07-29T05:13:52;21.59;70.79
66337;SHT30;53139;45.576;5.304;2023-07-29T05:16:53;21.77;70.33
66337;SHT30;53139;45.576;5.304;2023-07-29T05:19:53;21.73;70.22
66337;SHT30;53139;45.576;5.304;2023-07-29T05:22:54;21.65;70.78
66337;SHT30;53139;45.576;5.304;2023-07-29T05:25:54;21.60;71.42
66337;SHT30;53139;45.576;5.304;2023-07-29T05:28:55;21.67;70.60
66337;SHT30;53139;45.576;5.304;2023-07-29T05:31:55;21.73;70.66
66337;SHT30;53139;45.576;5.304;2023-07-29T05:34:57;21.83;71.24
66337;SHT30;53139;45.576;5.304;2023-07-29T05:37:57;22.14;70.05
66337;SHT30;53139;45.576;5.304;2023-07-29T05:40:57;22.05;70.84
66337;SHT30;53139;45.576;5.304;2023-07-29T05:43:58;22.11;71.63
66337;SHT30;53139;45.576;5.304;2023-07-29T05:46:58;22.20;71.69
66337;SHT30;53139;45.576;5.304;2023-07-29T05:49:59;22.01;72.10
66337;SHT30;53139;45.576;5.304;2023-07-29T05:53:02;21.67;73.14
66337;SHT30;53139;45.576;5.304;2023-07-29T05:56:02;21.80;73.28
66337;SHT30;53139;45.576;5.304;2023-07-29T05:59:03;22.10;72.48
66337;SHT30;53139;45.576;5.304;2023-07-29T06:02:03;22.51;71.47
66337;SHT30;53139;45.576;5.304;2023-07-29T06:05:06;22.94;70.34
66337;SHT30;53139;45.576;5.304;2023-07-29T06:08:07;23.15;69.38
66337;SHT30;53139;45.576;5.304;2023-07-29T06:11:08;23.31;69.16
66337;SHT30;53139;45.576;5.304;2023-07-29T06:14:09;23.41;68.49
66337;SHT30;53139;45.576;5.304;2023-07-29T06:17:09;23.77;66.96
66337;SHT30;53139;45.576;5.304;2023-07-29T06:20:11;23.86;67.81
66337;SHT30;53139;45.576;5.304;2023-07-29T06:23:12;23.89;68.74
66337;SHT30;53139;45.576;5.304;2023-07-29T06:26:13;24.14;66.11
66337;SHT30;53139;45.576;5.304;2023-07-29T06:29:14;24.28;65.30
66337;SHT30;53139;45.576;5.304;2023-07-29T06:32:14;24.37;65.19
66337;SHT30;53139;45.576;5.304;2023-07-29T06:35:18;24.44;66.14
66337;SHT30;53139;45.576;5.304;2023-07-29T06:38:19;24.72;64.96
66337;SHT30;53139;45.576;5.304;2023-07-29T06:41:22;24.75;65.07
66337;SHT30;53139;45.576;5.304;2023-07-29T06:44:22;25.44;64.07
66337;SHT30;53139;45.576;5.304;2023-07-29T06:47:23;24.93;65.02
66337;SHT30;53139;45.576;5.304;2023-07-29T06:50:23;24.80;66.67
66337;SHT30;53139;45.576;5.304;2023-07-29T06:53:24;24.39;66.69
66337;SHT30;53139;45.576;5.304;2023-07-29T06:56:25;24.59;68.39
66337;SHT30;53139;45.576;5.304;2023-07-29T06:59:26;24.62;67.33
66337;SHT30;53139;45.576;5.304;2023-07-29T07:02:26;24.49;66.01
66337;SHT30;53139;45.576;5.304;2023-07-29T07:05:28;24.25;67.99
66337;SHT30;53139;45.576;5.304;2023-07-29T07:08:34;24.11;68.81
66337;SHT30;53139;45.576;5.304;2023-07-29T07:11:35;24.62;68.35
66337;SHT30;53139;45.576;5.304;2023-07-29T07:14:36;24.92;68.91
66337;SHT30;53139;45.576;5.304;2023-07-29T07:17:36;25.16;65.38
66337;SHT30;53139;45.576;5.304;2023-07-29T07:20:37;25.78;62.88
66337;SHT30;53139;45.576;5.304;2023-07-29T07:23:39;26.10;63.91
66337;SHT30;53139;45.576;5.304;2023-07-29T07:26:40;26.24;63.19
66337;SHT30;53139;45.576;5.304;2023-07-29T07:29:40;26.19;61.48
66337;SHT30;53139;45.576;5.304;2023-07-29T07:32:41;26.13;61.63
66337;SHT30;53139;45.576;5.304;2023-07-29T07:35:41;26.20;61.47
66337;SHT30;53139;45.576;5.304;2023-07-29T07:38:42;26.34;61.00
66337;SHT30;53139;45.576;5.304;2023-07-29T07:41:44;25.85;63.40
66337;SHT30;53139;45.576;5.304;2023-07-29T07:44:44;26.04;60.72
66337;SHT30;53139;45.576;5.304;2023-07-29T07:47:44;26.04;62.47
66337;SHT30;53139;45.576;5.304;2023-07-29T07:50:45;25.96;62.12
66337;SHT30;53139;45.576;5.304;2023-07-29T07:53:45;26.06;61.40
66337;SHT30;53139;45.576;5.304;2023-07-29T07:56:46;25.94;61.08
66337;SHT30;53139;45.576;5.304;2023-07-29T07:59:46;26.16;62.25
66337;SHT30;53139;45.576;5.304;2023-07-29T08:02:47;26.48;59.28
66337;SHT30;53139;45.576;5.304;2023-07-29T08:05:47;26.72;60.36
66337;SHT30;53139;45.576;5.304;2023-07-29T08:08:48;26.41;60.56
66337;SHT30;53139;45.576;5.304;2023-07-29T08:11:48;26.31;62.30
66337;SHT30;53139;45.576;5.304;2023-07-29T08:14:49;26.20;63.46
66337;SHT30;53139;45.576;5.304;2023-07-29T08:17:49;26.40;63.75
66337;SHT30;53139;45.576;5.304;2023-07-29T08:20:54;26.88;64.41
66337;SHT30;53139;45.576;5.304;2023-07-29T08:24:03;27.06;63.92
66337;SHT30;53139;45.576;5.304;2023-07-29T08:27:04;27.19;61.48
66337;SHT30;53139;45.576;5.304;2023-07-29T08:30:05;27.10;62.92
66337;SHT30;53139;45.576;5.304;2023-07-29T08:33:06;27.16;61.19
66337;SHT30;53139;45.576;5.304;2023-07-29T08:36:06;26.82;64.03
66337;SHT30;53139;45.576;5.304;2023-07-29T08:39:06;26.49;64.76
66337;SHT30;53139;45.576;5.304;2023-07-29T08:42:08;26.49;65.48
66337;SHT30;53139;45.576;5.304;2023-07-29T08:45:11;26.62;63.51
66337;SHT30;53139;45.576;5.304;2023-07-29T08:48:12;26.34;63.47
66337;SHT30;53139;45.576;5.304;2023-07-29T08:51:17;26.43;63.32
66337;SHT30;53139;45.576;5.304;2023-07-29T08:54:19;26.19;66.80
66337;SHT30;53139;45.576;5.304;2023-07-29T08:57:20;25.61;67.00
66337;SHT30;53139;45.576;5.304;2023-07-29T09:00:21;25.10;67.71
66337;SHT30;53139;45.576;5.304;2023-07-29T09:03:22;25.65;67.14
66337;SHT30;53139;45.576;5.304;2023-07-29T09:06:23;26.04;68.83
66337;SHT30;53139;45.576;5.304;2023-07-29T09:09:25;26.24;66.54
66337;SHT30;53139;45.576;5.304;2023-07-29T09:12:26;25.72;68.50
66337;SHT30;53139;45.576;5.304;2023-07-29T09:15:28;25.75;67.08
66337;SHT30;53139;45.576;5.304;2023-07-29T09:18:28;24.45;73.81
66337;SHT30;53139;45.576;5.304;2023-07-29T09:21:29;24.68;73.53
66337;SHT30;53139;45.576;5.304;2023-07-29T09:24:30;25.92;69.66
66337;SHT30;53139;45.576;5.304;2023-07-29T09:27:32;26.34;67.58
66337;SHT30;53139;45.576;5.304;2023-07-29T09:30:39;25.44;68.57
66337;SHT30;53139;45.576;5.304;2023-07-29T09:33:39;23.83;74.74
66337;SHT30;53139;45.576;5.304;2023-07-29T09:41:30;25.13;70.70
66337;SHT30;53139;45.576;5.304;2023-07-29T09:44:39;24.75;71.07
66337;SHT30;53139;45.576;5.304;2023-07-29T09:47:51;24.69;71.31
66337;SHT30;53139;45.576;5.304;2023-07-29T09:51:40;24.65;71.06
66337;SHT30;53139;45.576;5.304;2023-07-29T09:58:52;25.51;69.10
66337;SHT30;53139;45.576;5.304;2023-07-29T10:09:46;27.53;65.37
66337;SHT30;53139;45.576;5.304;2023-07-29T10:13:00;28.43;62.09
66337;SHT30;53139;45.576;5.304;2023-07-29T10:16:03;27.89;62.15
66337;SHT30;53139;45.576;5.304;2023-07-29T10:19:04;28.05;60.82
66337;SHT30;53139;45.576;5.304;2023-07-29T10:22:06;28.46;59.91
66337;SHT30;53139;45.576;5.304;2023-07-29T10:28:11;30.88;56.31
66337;SHT30;53139;45.576;5.304;2023-07-29T10:31:16;29.68;56.95
66337;SHT30;53139;45.576;5.304;2023-07-29T10:34:18;29.26;57.70
66337;SHT30;53139;45.576;5.304;2023-07-29T10:37:19;29.06;58.74
66337;SHT30;53139;45.576;5.304;2023-07-29T10:40:25;28.40;61.14
66337;SHT30;53139;45.576;5.304;2023-07-29T10:43:31;27.92;60.13
66337;SHT30;53139;45.576;5.304;2023-07-29T10:46:35;26.72;61.43
66337;SHT30;53139;45.576;5.304;2023-07-29T10:49:36;26.48;63.45
66337;SHT30;53139;45.576;5.304;2023-07-29T10:55:36;26.10;64.09
66337;SHT30;53139;45.576;5.304;2023-07-29T10:58:37;26.45;65.38
66337;SHT30;53139;45.576;5.304;2023-07-29T11:01:42;26.79;63.52
66337;SHT30;53139;45.576;5.304;2023-07-29T11:04:51;26.83;63.58
66337;SHT30;53139;45.576;5.304;2023-07-29T11:07:54;26.36;64.05
66337;SHT30;53139;45.576;5.304;2023-07-29T11:11:12;25.61;67.05
66337;SHT30;53139;45.576;5.304;2023-07-29T11:14:12;25.41;67.92
66337;SHT30;53139;45.576;5.304;2023-07-29T11:17:15;25.42;67.37
66337;SHT30;53139;45.576;5.304;2023-07-29T11:20:17;25.39;67.47
66337;SHT30;53139;45.576;5.304;2023-07-29T11:23:18;25.48;67.96
66337;SHT30;53139;45.576;5.304;2023-07-29T11:26:19;25.23;68.19
66337;SHT30;53139;45.576;5.304;2023-07-29T11:29:20;25.35;67.01
66337;SHT30;53139;45.576;5.304;2023-07-29T11:32:20;25.48;67.59
66337;SHT30;53139;45.576;5.304;2023-07-29T11:35:21;25.61;68.24
66337;SHT30;53139;45.576;5.304;2023-07-29T11:38:22;25.45;68.56
66337;SHT30;53139;45.576;5.304;2023-07-29T11:41:23;25.39;68.91
66337;SHT30;53139;45.576;5.304;2023-07-29T11:48:47;25.24;68.77
66337;SHT30;53139;45.576;5.304;2023-07-29T11:56:11;24.86;69.88
66337;SHT30;53139;45.576;5.304;2023-07-29T11:59:23;24.20;72.79
66337;SHT30;53139;45.576;5.304;2023-07-29T12:11:17;27.19;65.09
66337;SHT30;53139;45.576;5.304;2023-07-29T12:18:39;27.20;65.96
66337;SHT30;53139;45.576;5.304;2023-07-29T12:21:41;26.72;64.66
66337;SHT30;53139;45.576;5.304;2023-07-29T12:24:42;25.65;68.70
66337;SHT30;53139;45.576;5.304;2023-07-29T12:27:43;26.12;67.42
66337;SHT30;53139;45.576;5.304;2023-07-29T12:30:43;25.97;68.26
66337;SHT30;53139;45.576;5.304;2023-07-29T12:33:44;23.29;77.82
66337;SHT30;53139;45.576;5.304;2023-07-29T12:36:49;22.84;80.94
66337;SHT30;53139;45.576;5.304;2023-07-29T12:39:50;22.49;82.06
66337;SHT30;53139;45.576;5.304;2023-07-29T12:42:51;22.73;82.58
66337;SHT30;53139;45.576;5.304;2023-07-29T12:45:52;22.80;89.85
66337;SHT30;53139;45.576;5.304;2023-07-29T12:48:53;27.24;74.93
66337;SHT30;53139;45.576;5.304;2023-07-29T12:51:53;26.16;70.97
66337;SHT30;53139;45.576;5.304;2023-07-29T12:55:03;31.64;61.83
66337;SHT30;53139;45.576;5.304;2023-07-29T12:58:19;30.23;61.62
66337;SHT30;53139;45.576;5.304;2023-07-29T13:01:23;32.86;55.86
66337;SHT30;53139;45.576;5.304;2023-07-29T13:04:40;27.95;63.38
66337;SHT30;53139;45.576;5.304;2023-07-29T13:08:01;28.81;63.38
66337;SHT30;53139;45.576;5.304;2023-07-29T13:11:17;29.01;64.32
66337;SHT30;53139;45.576;5.304;2023-07-29T13:14:32;28.12;64.92
66337;SHT30;53139;45.576;5.304;2023-07-29T13:17:43;28.50;64.99
66337;SHT30;53139;45.576;5.304;2023-07-29T13:20:56;30.02;61.01
66337;SHT30;53139;45.576;5.304;2023-07-29T13:24:12;30.02;59.13
66337;SHT30;53139;45.576;5.304;2023-07-29T13:27:17;30.33;58.20
66337;SHT30;53139;45.576;5.304;2023-07-29T13:30:18;32.55;54.63
66337;SHT30;53139;45.576;5.304;2023-07-29T13:33:18;35.84;47.49
66337;SHT30;53139;45.576;5.304;2023-07-29T13:36:19;36.82;46.19
66337;SHT30;53139;45.576;5.304;2023-07-29T13:39:22;38.39;43.90
66337;SHT30;53139;45.576;5.304;2023-07-29T13:42:29;34.17;49.08
66337;SHT30;53139;45.576;5.304;2023-07-29T13:45:43;33.89;49.84
66337;SHT30;53139;45.576;5.304;2023-07-29T13:49:25;35.21;47.32
66337;SHT30;53139;45.576;5.304;2023-07-29T13:52:51;40.01;39.54
66337;SHT30;53139;45.576;5.304;2023-07-29T13:56:20;35.27;45.15
66337;SHT30;53139;45.576;5.304;2023-07-29T13:59:50;36.16;43.77
66337;SHT30;53139;45.576;5.304;2023-07-29T14:03:02;37.29;41.94
66337;SHT30;53139;45.576;5.304;2023-07-29T14:06:06;40.56;36.37
66337;SHT30;53139;45.576;5.304;2023-07-29T14:09:06;43.05;35.83
66337;SHT30;53139;45.576;5.304;2023-07-29T14:12:07;42.95;35.31
66337;SHT30;53139;45.576;5.304;2023-07-29T14:15:08;44.37;33.74
66337;SHT30;53139;45.576;5.304;2023-07-29T14:18:09;43.09;34.98
66337;SHT30;53139;45.576;5.304;2023-07-29T14:21:18;42.92;34.58
66337;SHT30;53139;45.576;5.304;2023-07-29T14:24:24;43.64;35.00
66337;SHT30;53139;45.576;5.304;2023-07-29T14:27:31;42.06;34.06
66337;SHT30;53139;45.576;5.304;2023-07-29T14:30:53;42.33;35.75
66337;SHT30;53139;45.576;5.304;2023-07-29T14:33:57;42.75;33.97
66337;SHT30;53139;45.576;5.304;2023-07-29T14:36:58;33.94;46.09
66337;SHT30;53139;45.576;5.304;2023-07-29T14:40:00;31.85;48.21
66337;SHT30;53139;45.576;5.304;2023-07-29T14:43:01;31.03;48.43
66337;SHT30;53139;45.576;5.304;2023-07-29T14:46:02;30.19;50.60
66337;SHT30;53139;45.576;5.304;2023-07-29T14:49:03;29.40;51.63
66337;SHT30;53139;45.576;5.304;2023-07-29T14:52:03;26.16;64.85
66337;SHT30;53139;45.576;5.304;2023-07-29T14:55:08;27.44;60.33
66337;SHT30;53139;45.576;5.304;2023-07-29T14:58:18;26.55;64.90
66337;SHT30;53139;45.576;5.304;2023-07-29T15:01:38;25.85;68.88
66337;SHT30;53139;45.576;5.304;2023-07-29T15:04:39;26.51;64.88
66337;SHT30;53139;45.576;5.304;2023-07-29T15:07:39;27.46;63.30
66337;SHT30;53139;45.576;5.304;2023-07-29T15:10:40;27.53;62.80
66337;SHT30;53139;45.576;5.304;2023-07-29T15:13:40;27.61;61.16
66337;SHT30;53139;45.576;5.304;2023-07-29T15:16:40;28.17;61.15
66337;SHT30;53139;45.576;5.304;2023-07-29T15:19:41;30.23;59.44
66337;SHT30;53139;45.576;5.304;2023-07-29T15:22:42;32.64;55.34
66337;SHT30;53139;45.576;5.304;2023-07-29T15:25:42;38.26;44.63
66337;SHT30;53139;45.576;5.304;2023-07-29T15:28:43;39.23;42.60
66337;SHT30;53139;45.576;5.304;2023-07-29T15:31:43;37.85;42.26
66337;SHT30;53139;45.576;5.304;2023-07-29T15:34:43;39.33;42.06
66337;SHT30;53139;45.576;5.304;2023-07-29T15:37:44;33.29;51.51
66337;SHT30;53139;45.576;5.304;2023-07-29T15:40:46;30.35;58.00
66337;SHT30;53139;45.576;5.304;2023-07-29T15:43:49;28.82;61.60
66337;SHT30;53139;45.576;5.304;2023-07-29T15:46:49;28.27;63.62
66337;SHT30;53139;45.576;5.304;2023-07-29T15:49:51;28.14;63.84
66337;SHT30;53139;45.576;5.304;2023-07-29T15:52:52;27.71;64.30
66337;SHT30;53139;45.576;5.304;2023-07-29T15:55:55;25.73;80.55
66337;SHT30;53139;45.576;5.304;2023-07-29T15:58:56;27.19;84.51
66337;SHT30;53139;45.576;5.304;2023-07-29T16:01:57;27.46;83.14
66337;SHT30;53139;45.576;5.304;2023-07-29T16:04:57;28.55;88.28
66337;SHT30;53139;45.576;5.304;2023-07-29T16:07:57;27.71;83.42
66337;SHT30;53139;45.576;5.304;2023-07-29T16:10:58;28.03;73.89
66337;SHT30;53139;45.576;5.304;2023-07-29T16:13:58;25.04;82.56
66337;SHT30;53139;45.576;5.304;2023-07-29T16:16:59;26.81;80.58
66337;SHT30;53139;45.576;5.304;2023-07-29T16:20:01;25.90;78.20
66337;SHT30;53139;45.576;5.304;2023-07-29T16:23:03;25.75;81.37
66337;SHT30;53139;45.576;5.304;2023-07-29T16:26:03;27.61;75.52
66337;SHT30;53139;45.576;5.304;2023-07-29T16:29:04;26.54;75.93
66337;SHT30;53139;45.576;5.304;2023-07-29T16:32:05;24.06;81.64
66337;SHT30;53139;45.576;5.304;2023-07-29T16:35:06;26.23;79.08
66337;SHT30;53139;45.576;5.304;2023-07-29T16:38:07;26.93;72.76
66337;SHT30;53139;45.576;5.304;2023-07-29T16:41:07;26.79;74.58
66337;SHT30;53139;45.576;5.304;2023-07-29T16:44:08;26.98;71.78
66337;SHT30;53139;45.576;5.304;2023-07-29T16:47:08;24.55;77.25
66337;SHT30;53139;45.576;5.304;2023-07-29T16:50:36;26.67;71.59
66337;SHT30;53139;45.576;5.304;2023-07-29T16:58:31;31.37;56.51
66337;SHT30;53139;45.576;5.304;2023-07-29T17:01:53;32.36;55.81
66337;SHT30;53139;45.576;5.304;2023-07-29T17:04:56;31.28;59.98
66337;SHT30;53139;45.576;5.304;2023-07-29T17:08:13;30.63;61.37
66337;SHT30;53139;45.576;5.304;2023-07-29T17:11:13;31.57;57.57
66337;SHT30;53139;45.576;5.304;2023-07-29T17:14:14;33.49;53.84
66337;SHT30;53139;45.576;5.304;2023-07-29T17:17:14;33.83;52.35
66337;SHT30;53139;45.576;5.304;2023-07-29T17:20:14;33.10;53.54
66337;SHT30;53139;45.576;5.304;2023-07-29T17:23:15;33.36;55.84
66337;SHT30;53139;45.576;5.304;2023-07-29T17:26:15;30.83;60.66
66337;SHT30;53139;45.576;5.304;2023-07-29T17:29:16;27.37;70.50
66337;SHT30;53139;45.576;5.304;2023-07-29T17:32:16;27.68;68.73
66337;SHT30;53139;45.576;5.304;2023-07-29T17:35:16;26.68;70.81
66337;SHT30;53139;45.576;5.304;2023-07-29T17:38:19;25.72;72.12
66337;SHT30;53139;45.576;5.304;2023-07-29T17:41:19;25.11;71.81
66337;SHT30;53139;45.576;5.304;2023-07-29T17:44:19;25.02;71.30
66337;SHT30;53139;45.576;5.304;2023-07-29T17:47:20;23.90;73.17
66337;SHT30;53139;45.576;5.304;2023-07-29T17:50:20;23.77;74.89
66337;SHT30;53139;45.576;5.304;2023-07-29T17:53:22;23.65;74.90
66337;SHT30;53139;45.576;5.304;2023-07-29T17:56:22;23.80;74.99
66337;SHT30;53139;45.576;5.304;2023-07-29T17:59:22;23.35;74.52
66337;SHT30;53139;45.576;5.304;2023-07-29T18:02:23;23.29;74.61
66337;SHT30;53139;45.576;5.304;2023-07-29T18:05:23;23.11;75.31
66337;SHT30;53139;45.576;5.304;2023-07-29T18:08:24;22.99;75.62
66337;SHT30;53139;45.576;5.304;2023-07-29T18:11:24;22.82;75.48
66337;SHT30;53139;45.576;5.304;2023-07-29T18:14:24;22.37;77.02
66337;SHT30;53139;45.576;5.304;2023-07-29T18:17:25;22.56;76.99
66337;SHT30;53139;45.576;5.304;2023-07-29T18:20:25;21.25;82.10
66337;SHT30;53139;45.576;5.304;2023-07-29T18:23:27;21.49;81.79
66337;SHT30;53139;45.576;5.304;2023-07-29T18:26:27;21.59;81.57
66337;SHT30;53139;45.576;5.304;2023-07-29T18:29:27;21.79;81.24
66337;SHT30;53139;45.576;5.304;2023-07-29T18:32:28;21.89;80.56
66337;SHT30;53139;45.576;5.304;2023-07-29T18:35:29;21.94;80.86
66337;SHT30;53139;45.576;5.304;2023-07-29T18:38:29;22.25;79.74
66337;SHT30;53139;45.576;5.304;2023-07-29T18:41:30;22.07;81.53
66337;SHT30;53139;45.576;5.304;2023-07-29T18:44:33;22.24;80.45
66337;SHT30;53139;45.576;5.304;2023-07-29T18:47:34;21.94;80.32
66337;SHT30;53139;45.576;5.304;2023-07-29T18:50:34;21.48;81.61
66337;SHT30;53139;45.576;5.304;2023-07-29T18:53:34;21.73;80.28
66337;SHT30;53139;45.576;5.304;2023-07-29T18:56:35;21.38;82.05
66337;SHT30;53139;45.576;5.304;2023-07-29T18:59:35;21.74;80.51
66337;SHT30;53139;45.576;5.304;2023-07-29T19:02:35;21.86;80.23
66337;SHT30;53139;45.576;5.304;2023-07-29T19:05:37;21.34;83.06
66337;SHT30;53139;45.576;5.304;2023-07-29T19:08:37;20.52;86.35
66337;SHT30;53139;45.576;5.304;2023-07-29T19:11:38;20.80;84.81
66337;SHT30;53139;45.576;5.304;2023-07-29T19:14:39;21.12;84.08
66337;SHT30;53139;45.576;5.304;2023-07-29T19:17:39;21.29;83.89
66337;SHT30;53139;45.576;5.304;2023-07-29T19:20:40;20.64;86.81
66337;SHT30;53139;45.576;5.304;2023-07-29T19:23:43;20.15;89.56
66337;SHT30;53139;45.576;5.304;2023-07-29T19:26:43;20.07;90.50
66337;SHT30;53139;45.576;5.304;2023-07-29T19:29:43;20.12;89.88
66337;SHT30;53139;45.576;5.304;2023-07-29T19:32:45;20.05;90.61
66337;SHT30;53139;45.576;5.304;2023-07-29T19:35:45;20.15;90.57
66337;SHT30;53139;45.576;5.304;2023-07-29T19:38:46;20.12;90.88
66337;SHT30;53139;45.576;5.304;2023-07-29T19:41:46;20.72;87.99
66337;SHT30;53139;45.576;5.304;2023-07-29T19:44:46;20.85;87.93
66337;SHT30;53139;45.576;5.304;2023-07-29T19:47:47;20.91;87.63
66337;SHT30;53139;45.576;5.304;2023-07-29T19:50:48;21.05;87.13
66337;SHT30;53139;45.576;5.304;2023-07-29T19:53:48;21.00;87.85
66337;SHT30;53139;45.576;5.304;2023-07-29T19:56:48;21.12;86.27
66337;SHT30;53139;45.576;5.304;2023-07-29T19:59:49;21.29;85.89
66337;SHT30;53139;45.576;5.304;2023-07-29T20:02:50;21.05;87.32
66337;SHT30;53139;45.576;5.304;2023-07-29T20:05:50;21.18;86.32